Wisby Teak — LAHV7 — position and weather

sailwx.info

Track history (hours):
 
Tides and Currents Weather Stations Pressure Air Temp Water Temp Dewpoint Dewpoint Depression Visibility Wind Speed Wind Dir Waves Ship Positions

Wisby Teak

Last reported at 2018-Apr-20 09:47 UTC. Time now 2018-Apr-24 16:37 UTC.
Position N 35°58' W 005°35'.

Length 612 m; draft 5.3 m.

Type: Ship. MMSI: 259944000.

Date/timePositionNaut miles runAvg speedWind from/ knotsBaromVisibWave heightAir tempDewpointWater temp
2018-Apr-20 09:47N 35°58' W 005°35'3 9.1
2018-Apr-20 09:30N 35°57' W 005°32'180 3.8
2018-Apr-18 10:23N 34°02' W 008°21'9 9.8
2018-Apr-18 09:30N 33°56' W 008°28'131 9.7
2018-Apr-17 20:02N 32°03' W 009°46'1 9.3
2018-Apr-17 19:58N 32°02' W 009°47'14 9.3
2018-Apr-17 18:28N 31°49' W 009°52'14 9.3
2018-Apr-17 16:59N 31°36' W 009°58'4 8.9
2018-Apr-17 16:31N 31°32' W 009°60'7 9.0
2018-Apr-17 15:46N 31°26' W 010°02'2 9.0
2018-Apr-17 15:31N 31°24' W 010°04'62 3.8
2018-Apr-16 23:06N 30°25' W 009°38'0 0.0
2018-Apr-16 23:00N 30°25' W 009°38'0 0.0
2018-Apr-16 22:21N 30°25' W 009°38'0 0.0
2018-Apr-16 21:54N 30°25' W 009°38'0 0.0
2018-Apr-16 21:24N 30°25' W 009°38'0 0.0
2018-Apr-16 19:51N 30°25' W 009°38'0 0.0
2018-Apr-16 19:24N 30°25' W 009°38'0 0.0
2018-Apr-16 18:54N 30°25' W 009°38'0 0.0
2018-Apr-16 18:27N 30°25' W 009°38'0 0.0
2018-Apr-16 17:57N 30°25' W 009°38'0 0.0
2018-Apr-16 17:24N 30°25' W 009°38'  
2018-Apr-12 17:16N 35°58' W 005°36'2 5.8
2018-Apr-12 16:59N 35°58' W 005°34'3 6.1
2018-Apr-12 16:31N 35°56' W 005°31'1 0.0
2018-Apr-11 12:30N 35°57' W 005°32'3 6.4
2018-Apr-11 12:01N 35°59' W 005°29'3 5.4
2018-Apr-11 11:30N 35°60' W 005°26'3 5.9
2018-Apr-11 11:01N 36°01' W 005°22'3 6.2
2018-Apr-11 10:31N 36°01' W 005°19'3 6.2
2018-Apr-11 10:00N 36°02' W 005°15'3 5.9
2018-Apr-11 09:30N 36°02' W 005°11'1 0.2
2018-Apr-11 05:37N 36°02' W 005°11'1 3.5
2018-Apr-11 05:28N 36°02' W 005°10'2 4.3
2018-Apr-11 05:00N 36°01' W 005°08'2 0.4
2018-Apr-10 22:34N 35°59' W 005°07'1 7.0
2018-Apr-10 22:25N 35°59' W 005°09'3 7.6
2018-Apr-10 22:00N 35°58' W 005°12'4 9.0
2018-Apr-10 21:31N 35°58' W 005°18'4 9.0
2018-Apr-10 21:01N 35°57' W 005°23'5 9.2
2018-Apr-10 20:31N 35°56' W 005°29'  
Track history (hours):
 
Tides and Currents Weather Stations Pressure Air Temp Water Temp Dewpoint Dewpoint Depression Visibility Wind Speed Wind Dir Waves Ship Positions

Wisby Teak

Last reported at 2018-Apr-20 09:47 UTC. Time now 2018-Apr-24 16:37 UTC.
Position N 35°58' W 005°35'.

Length 612 m; draft 5.3 m.

Type: Ship. MMSI: 259944000.

Date/timePositionNaut miles runAvg speedWind from/ knotsBaromVisibWave heightAir tempDewpointWater temp
2018-Apr-20 09:47N 35°58' W 005°35'3 9.1
2018-Apr-20 09:30N 35°57' W 005°32'180 3.8
2018-Apr-18 10:23N 34°02' W 008°21'9 9.8
2018-Apr-18 09:30N 33°56' W 008°28'131 9.7
2018-Apr-17 20:02N 32°03' W 009°46'1 9.3
2018-Apr-17 19:58N 32°02' W 009°47'14 9.3
2018-Apr-17 18:28N 31°49' W 009°52'14 9.3
2018-Apr-17 16:59N 31°36' W 009°58'4 8.9
2018-Apr-17 16:31N 31°32' W 009°60'7 9.0
2018-Apr-17 15:46N 31°26' W 010°02'2 9.0
2018-Apr-17 15:31N 31°24' W 010°04'62 3.8
2018-Apr-16 23:06N 30°25' W 009°38'0 0.0
2018-Apr-16 23:00N 30°25' W 009°38'0 0.0
2018-Apr-16 22:21N 30°25' W 009°38'0 0.0
2018-Apr-16 21:54N 30°25' W 009°38'0 0.0
2018-Apr-16 21:24N 30°25' W 009°38'0 0.0
2018-Apr-16 19:51N 30°25' W 009°38'0 0.0
2018-Apr-16 19:24N 30°25' W 009°38'0 0.0
2018-Apr-16 18:54N 30°25' W 009°38'0 0.0
2018-Apr-16 18:27N 30°25' W 009°38'0 0.0
2018-Apr-16 17:57N 30°25' W 009°38'0 0.0
2018-Apr-16 17:24N 30°25' W 009°38'  
2018-Apr-12 17:16N 35°58' W 005°36'2 5.8
2018-Apr-12 16:59N 35°58' W 005°34'3 6.1
2018-Apr-12 16:31N 35°56' W 005°31'1 0.0
2018-Apr-11 12:30N 35°57' W 005°32'3 6.4
2018-Apr-11 12:01N 35°59' W 005°29'3 5.4
2018-Apr-11 11:30N 35°60' W 005°26'3 5.9
2018-Apr-11 11:01N 36°01' W 005°22'3 6.2
2018-Apr-11 10:31N 36°01' W 005°19'3 6.2
2018-Apr-11 10:00N 36°02' W 005°15'3 5.9
2018-Apr-11 09:30N 36°02' W 005°11'1 0.2
2018-Apr-11 05:37N 36°02' W 005°11'1 3.5
2018-Apr-11 05:28N 36°02' W 005°10'2 4.3
2018-Apr-11 05:00N 36°01' W 005°08'2 0.4
2018-Apr-10 22:34N 35°59' W 005°07'1 7.0
2018-Apr-10 22:25N 35°59' W 005°09'3 7.6
2018-Apr-10 22:00N 35°58' W 005°12'4 9.0
2018-Apr-10 21:31N 35°58' W 005°18'4 9.0
2018-Apr-10 21:01N 35°57' W 005°23'5 9.2
2018-Apr-10 20:31N 35°56' W 005°29'  

Dump ship's entire track history